sensor_id;sensor_type;location;lat;lon;timestamp;P1;durP1;ratioP1;P2;durP2;ratioP2
78903;SDS011;68291;49.602;8.722;2023-04-25T00:02:00;6.13;;;4.70;;
78903;SDS011;68291;49.602;8.722;2023-04-25T00:04:36;5.57;;;4.97;;
78903;SDS011;68291;49.602;8.722;2023-04-25T00:07:17;5.87;;;5.10;;
78903;SDS011;68291;49.602;8.722;2023-04-25T00:12:51;5.90;;;5.30;;
78903;SDS011;68291;49.602;8.722;2023-04-25T00:15:31;5.23;;;4.77;;
78903;SDS011;68291;49.602;8.722;2023-04-25T00:18:03;6.57;;;5.70;;
78903;SDS011;68291;49.602;8.722;2023-04-25T00:20:51;6.67;;;5.30;;
78903;SDS011;68291;49.602;8.722;2023-04-25T00:23:24;7.13;;;5.87;;
78903;SDS011;68291;49.602;8.722;2023-04-25T00:26:08;5.63;;;4.53;;
78903;SDS011;68291;49.602;8.722;2023-04-25T00:28:59;5.60;;;5.10;;
78903;SDS011;68291;49.602;8.722;2023-04-25T00:31:55;5.77;;;5.10;;
78903;SDS011;68291;49.602;8.722;2023-04-25T00:34:43;6.23;;;5.53;;
78903;SDS011;68291;49.602;8.722;2023-04-25T00:37:29;7.10;;;5.30;;
78903;SDS011;68291;49.602;8.722;2023-04-25T00:40:23;6.73;;;5.70;;
78903;SDS011;68291;49.602;8.722;2023-04-25T00:43:08;6.80;;;5.90;;
78903;SDS011;68291;49.602;8.722;2023-04-25T00:45:40;6.70;;;6.00;;
78903;SDS011;68291;49.602;8.722;2023-04-25T00:48:28;5.87;;;5.17;;
78903;SDS011;68291;49.602;8.722;2023-04-25T00:51:11;6.53;;;5.80;;
78903;SDS011;68291;49.602;8.722;2023-04-25T00:54:06;6.60;;;5.60;;
78903;SDS011;68291;49.602;8.722;2023-04-25T00:57:07;7.90;;;5.93;;
78903;SDS011;68291;49.602;8.722;2023-04-25T01:00:09;7.10;;;5.93;;
78903;SDS011;68291;49.602;8.722;2023-04-25T01:02:44;6.57;;;5.73;;
78903;SDS011;68291;49.602;8.722;2023-04-25T01:05:21;8.07;;;5.77;;
78903;SDS011;68291;49.602;8.722;2023-04-25T01:07:55;7.17;;;6.13;;
78903;SDS011;68291;49.602;8.722;2023-04-25T01:10:26;7.70;;;5.90;;
78903;SDS011;68291;49.602;8.722;2023-04-25T01:12:59;7.00;;;6.27;;
78903;SDS011;68291;49.602;8.722;2023-04-25T01:15:52;7.50;;;5.90;;
78903;SDS011;68291;49.602;8.722;2023-04-25T01:18:39;7.17;;;6.20;;
78903;SDS011;68291;49.602;8.722;2023-04-25T01:24:38;7.90;;;6.30;;
78903;SDS011;68291;49.602;8.722;2023-04-25T01:27:23;6.97;;;6.27;;
78903;SDS011;68291;49.602;8.722;2023-04-25T01:30:06;7.33;;;6.03;;
78903;SDS011;68291;49.602;8.722;2023-04-25T01:32:44;8.57;;;6.40;;
78903;SDS011;68291;49.602;8.722;2023-04-25T01:35:30;7.43;;;6.73;;
78903;SDS011;68291;49.602;8.722;2023-04-25T01:38:07;8.17;;;7.23;;
78903;SDS011;68291;49.602;8.722;2023-04-25T01:40:39;8.80;;;6.47;;
78903;SDS011;68291;49.602;8.722;2023-04-25T01:43:13;7.33;;;6.33;;
78903;SDS011;68291;49.602;8.722;2023-04-25T01:45:46;10.10;;;7.23;;
78903;SDS011;68291;49.602;8.722;2023-04-25T01:48:30;8.13;;;6.97;;
78903;SDS011;68291;49.602;8.722;2023-04-25T01:51:08;7.93;;;6.43;;
78903;SDS011;68291;49.602;8.722;2023-04-25T01:54:07;8.20;;;7.40;;
78903;SDS011;68291;49.602;8.722;2023-04-25T01:56:55;7.23;;;6.27;;
78903;SDS011;68291;49.602;8.722;2023-04-25T01:59:43;9.07;;;6.43;;
78903;SDS011;68291;49.602;8.722;2023-04-25T02:02:56;8.37;;;6.83;;
78903;SDS011;68291;49.602;8.722;2023-04-25T02:05:39;9.93;;;7.00;;
78903;SDS011;68291;49.602;8.722;2023-04-25T02:08:16;10.40;;;6.80;;
78903;SDS011;68291;49.602;8.722;2023-04-25T02:10:52;9.40;;;7.53;;
78903;SDS011;68291;49.602;8.722;2023-04-25T02:13:41;8.60;;;7.60;;
78903;SDS011;68291;49.602;8.722;2023-04-25T02:16:37;8.63;;;7.70;;
78903;SDS011;68291;49.602;8.722;2023-04-25T02:19:09;8.07;;;7.00;;
78903;SDS011;68291;49.602;8.722;2023-04-25T02:21:41;7.40;;;6.60;;
78903;SDS011;68291;49.602;8.722;2023-04-25T02:24:36;7.87;;;6.80;;
78903;SDS011;68291;49.602;8.722;2023-04-25T02:27:17;9.30;;;7.43;;
78903;SDS011;68291;49.602;8.722;2023-04-25T02:29:57;8.90;;;7.77;;
78903;SDS011;68291;49.602;8.722;2023-04-25T02:32:47;9.43;;;7.93;;
78903;SDS011;68291;49.602;8.722;2023-04-25T02:35:37;9.23;;;8.23;;
78903;SDS011;68291;49.602;8.722;2023-04-25T02:38:36;9.00;;;7.27;;
78903;SDS011;68291;49.602;8.722;2023-04-25T02:41:30;11.53;;;7.50;;
78903;SDS011;68291;49.602;8.722;2023-04-25T02:47:35;10.27;;;8.30;;
78903;SDS011;68291;49.602;8.722;2023-04-25T02:50:07;9.40;;;8.33;;
78903;SDS011;68291;49.602;8.722;2023-04-25T02:52:52;11.13;;;8.47;;
78903;SDS011;68291;49.602;8.722;2023-04-25T02:55:37;10.40;;;8.33;;
78903;SDS011;68291;49.602;8.722;2023-04-25T02:58:14;10.03;;;8.97;;
78903;SDS011;68291;49.602;8.722;2023-04-25T03:01:06;9.47;;;8.23;;
78903;SDS011;68291;49.602;8.722;2023-04-25T03:03:39;9.83;;;8.47;;
78903;SDS011;68291;49.602;8.722;2023-04-25T03:06:21;10.90;;;8.43;;
78903;SDS011;68291;49.602;8.722;2023-04-25T03:08:54;9.03;;;8.00;;
78903;SDS011;68291;49.602;8.722;2023-04-25T03:11:33;9.27;;;8.10;;
78903;SDS011;68291;49.602;8.722;2023-04-25T03:14:11;9.27;;;6.93;;
78903;SDS011;68291;49.602;8.722;2023-04-25T03:20:05;9.37;;;8.07;;
78903;SDS011;68291;49.602;8.722;2023-04-25T03:22:58;8.53;;;7.63;;
78903;SDS011;68291;49.602;8.722;2023-04-25T03:25:29;8.30;;;7.40;;
78903;SDS011;68291;49.602;8.722;2023-04-25T03:28:05;8.00;;;7.03;;
78903;SDS011;68291;49.602;8.722;2023-04-25T03:30:45;8.90;;;7.67;;
78903;SDS011;68291;49.602;8.722;2023-04-25T03:36:25;9.67;;;7.30;;
78903;SDS011;68291;49.602;8.722;2023-04-25T03:39:09;8.63;;;7.67;;
78903;SDS011;68291;49.602;8.722;2023-04-25T03:41:55;9.47;;;7.93;;
78903;SDS011;68291;49.602;8.722;2023-04-25T03:44:31;10.53;;;8.27;;
78903;SDS011;68291;49.602;8.722;2023-04-25T03:47:03;10.37;;;8.07;;
78903;SDS011;68291;49.602;8.722;2023-04-25T03:53:15;9.20;;;7.73;;
78903;SDS011;68291;49.602;8.722;2023-04-25T03:56:23;9.40;;;8.30;;
78903;SDS011;68291;49.602;8.722;2023-04-25T03:59:07;11.33;;;8.67;;
78903;SDS011;68291;49.602;8.722;2023-04-25T04:01:42;11.00;;;8.07;;
78903;SDS011;68291;49.602;8.722;2023-04-25T04:04:27;11.80;;;9.40;;
78903;SDS011;68291;49.602;8.722;2023-04-25T04:07:17;11.60;;;9.50;;
78903;SDS011;68291;49.602;8.722;2023-04-25T04:10:08;9.37;;;8.20;;
78903;SDS011;68291;49.602;8.722;2023-04-25T04:12:56;9.27;;;8.27;;
78903;SDS011;68291;49.602;8.722;2023-04-25T04:15:31;10.47;;;8.10;;
78903;SDS011;68291;49.602;8.722;2023-04-25T04:18:09;9.70;;;8.57;;
78903;SDS011;68291;49.602;8.722;2023-04-25T04:20:49;10.93;;;9.03;;
78903;SDS011;68291;49.602;8.722;2023-04-25T04:23:29;11.50;;;9.97;;
78903;SDS011;68291;49.602;8.722;2023-04-25T04:26:12;10.83;;;9.70;;
78903;SDS011;68291;49.602;8.722;2023-04-25T04:29:18;12.50;;;10.50;;
78903;SDS011;68291;49.602;8.722;2023-04-25T04:32:01;10.70;;;9.60;;
78903;SDS011;68291;49.602;8.722;2023-04-25T04:34:55;12.60;;;10.47;;
78903;SDS011;68291;49.602;8.722;2023-04-25T04:37:32;11.93;;;10.67;;
78903;SDS011;68291;49.602;8.722;2023-04-25T04:40:22;12.17;;;10.03;;
78903;SDS011;68291;49.602;8.722;2023-04-25T04:43:03;11.13;;;9.70;;
78903;SDS011;68291;49.602;8.722;2023-04-25T04:46:05;11.40;;;10.10;;
78903;SDS011;68291;49.602;8.722;2023-04-25T04:49:10;12.77;;;10.20;;
78903;SDS011;68291;49.602;8.722;2023-04-25T04:52:14;11.20;;;10.00;;
78903;SDS011;68291;49.602;8.722;2023-04-25T04:55:22;12.87;;;10.90;;
78903;SDS011;68291;49.602;8.722;2023-04-25T04:58:23;12.67;;;10.63;;
78903;SDS011;68291;49.602;8.722;2023-04-25T05:01:23;12.73;;;10.57;;
78903;SDS011;68291;49.602;8.722;2023-04-25T05:04:28;13.40;;;11.00;;
78903;SDS011;68291;49.602;8.722;2023-04-25T05:07:21;13.00;;;10.67;;
78903;SDS011;68291;49.602;8.722;2023-04-25T05:10:14;13.53;;;11.43;;
78903;SDS011;68291;49.602;8.722;2023-04-25T05:13:37;12.53;;;10.23;;
78903;SDS011;68291;49.602;8.722;2023-04-25T05:16:39;13.80;;;11.40;;
78903;SDS011;68291;49.602;8.722;2023-04-25T05:19:37;13.93;;;12.37;;
78903;SDS011;68291;49.602;8.722;2023-04-25T05:22:34;13.67;;;11.33;;
78903;SDS011;68291;49.602;8.722;2023-04-25T05:25:32;14.87;;;12.13;;
78903;SDS011;68291;49.602;8.722;2023-04-25T05:28:22;14.90;;;12.33;;
78903;SDS011;68291;49.602;8.722;2023-04-25T05:31:26;13.50;;;11.50;;
78903;SDS011;68291;49.602;8.722;2023-04-25T05:34:06;14.63;;;11.73;;
78903;SDS011;68291;49.602;8.722;2023-04-25T05:37:05;13.50;;;12.07;;
78903;SDS011;68291;49.602;8.722;2023-04-25T05:39:47;14.57;;;11.70;;
78903;SDS011;68291;49.602;8.722;2023-04-25T05:42:44;13.80;;;12.00;;
78903;SDS011;68291;49.602;8.722;2023-04-25T05:45:51;18.73;;;12.50;;
78903;SDS011;68291;49.602;8.722;2023-04-25T05:48:52;14.43;;;12.50;;
78903;SDS011;68291;49.602;8.722;2023-04-25T05:51:58;14.70;;;12.10;;
78903;SDS011;68291;49.602;8.722;2023-04-25T05:55:04;14.87;;;12.03;;
78903;SDS011;68291;49.602;8.722;2023-04-25T05:57:54;15.47;;;12.30;;
78903;SDS011;68291;49.602;8.722;2023-04-25T06:00:27;15.83;;;11.97;;
78903;SDS011;68291;49.602;8.722;2023-04-25T06:03:19;14.57;;;12.10;;
78903;SDS011;68291;49.602;8.722;2023-04-25T06:05:53;14.77;;;11.43;;
78903;SDS011;68291;49.602;8.722;2023-04-25T06:08:33;17.13;;;12.07;;
78903;SDS011;68291;49.602;8.722;2023-04-25T06:11:18;14.27;;;12.23;;
78903;SDS011;68291;49.602;8.722;2023-04-25T06:14:14;13.70;;;11.57;;
78903;SDS011;68291;49.602;8.722;2023-04-25T06:16:50;14.87;;;11.67;;
78903;SDS011;68291;49.602;8.722;2023-04-25T06:19:23;14.07;;;10.60;;
78903;SDS011;68291;49.602;8.722;2023-04-25T06:22:07;11.60;;;10.40;;
78903;SDS011;68291;49.602;8.722;2023-04-25T06:25:01;13.07;;;10.50;;
78903;SDS011;68291;49.602;8.722;2023-04-25T06:27:57;12.97;;;10.33;;
78903;SDS011;68291;49.602;8.722;2023-04-25T06:30:51;12.43;;;8.73;;
78903;SDS011;68291;49.602;8.722;2023-04-25T06:33:23;9.93;;;8.03;;
78903;SDS011;68291;49.602;8.722;2023-04-25T06:36:19;10.23;;;7.63;;
78903;SDS011;68291;49.602;8.722;2023-04-25T06:38:58;13.10;;;8.77;;
78903;SDS011;68291;49.602;8.722;2023-04-25T06:41:37;10.63;;;8.03;;
78903;SDS011;68291;49.602;8.722;2023-04-25T06:44:28;10.33;;;7.47;;
78903;SDS011;68291;49.602;8.722;2023-04-25T06:47:00;11.93;;;8.00;;
78903;SDS011;68291;49.602;8.722;2023-04-25T06:49:32;10.90;;;8.27;;
78903;SDS011;68291;49.602;8.722;2023-04-25T06:52:18;14.33;;;8.70;;
78903;SDS011;68291;49.602;8.722;2023-04-25T06:54:59;11.93;;;7.53;;
78903;SDS011;68291;49.602;8.722;2023-04-25T06:57:54;12.60;;;7.90;;
78903;SDS011;68291;49.602;8.722;2023-04-25T07:00:57;13.80;;;7.30;;
78903;SDS011;68291;49.602;8.722;2023-04-25T07:03:32;9.97;;;6.47;;
78903;SDS011;68291;49.602;8.722;2023-04-25T07:06:18;11.83;;;7.33;;
78903;SDS011;68291;49.602;8.722;2023-04-25T07:09:09;10.47;;;6.83;;
78903;SDS011;68291;49.602;8.722;2023-04-25T07:12:18;10.20;;;5.90;;
78903;SDS011;68291;49.602;8.722;2023-04-25T07:15:10;9.40;;;6.20;;
78903;SDS011;68291;49.602;8.722;2023-04-25T07:18:01;10.50;;;5.33;;
78903;SDS011;68291;49.602;8.722;2023-04-25T07:21:05;10.07;;;5.07;;
78903;SDS011;68291;49.602;8.722;2023-04-25T07:23:55;6.30;;;5.10;;
78903;SDS011;68291;49.602;8.722;2023-04-25T07:26:33;6.53;;;5.03;;
78903;SDS011;68291;49.602;8.722;2023-04-25T07:29:31;9.07;;;4.23;;
78903;SDS011;68291;49.602;8.722;2023-04-25T07:32:05;8.70;;;4.50;;
78903;SDS011;68291;49.602;8.722;2023-04-25T07:34:50;7.80;;;4.37;;
78903;SDS011;68291;49.602;8.722;2023-04-25T07:37:28;7.10;;;4.10;;
78903;SDS011;68291;49.602;8.722;2023-04-25T07:40:28;7.40;;;4.10;;
78903;SDS011;68291;49.602;8.722;2023-04-25T07:43:22;9.83;;;4.77;;
78903;SDS011;68291;49.602;8.722;2023-04-25T07:49:25;7.13;;;4.27;;
78903;SDS011;68291;49.602;8.722;2023-04-25T07:51:56;9.27;;;4.33;;
78903;SDS011;68291;49.602;8.722;2023-04-25T07:54:41;7.90;;;4.67;;
78903;SDS011;68291;49.602;8.722;2023-04-25T07:57:27;8.73;;;4.67;;
78903;SDS011;68291;49.602;8.722;2023-04-25T08:00:05;7.40;;;4.13;;
78903;SDS011;68291;49.602;8.722;2023-04-25T08:03:06;5.57;;;4.50;;
78903;SDS011;68291;49.602;8.722;2023-04-25T08:06:09;6.03;;;4.30;;
78903;SDS011;68291;49.602;8.722;2023-04-25T08:09:04;10.30;;;4.60;;
78903;SDS011;68291;49.602;8.722;2023-04-25T08:11:44;6.47;;;3.87;;
78903;SDS011;68291;49.602;8.722;2023-04-25T08:14:35;9.17;;;4.60;;
78903;SDS011;68291;49.602;8.722;2023-04-25T08:17:10;9.27;;;5.00;;
78903;SDS011;68291;49.602;8.722;2023-04-25T08:19:51;7.27;;;5.00;;
78903;SDS011;68291;49.602;8.722;2023-04-25T08:22:29;7.77;;;4.73;;
78903;SDS011;68291;49.602;8.722;2023-04-25T08:25:22;7.40;;;4.50;;
78903;SDS011;68291;49.602;8.722;2023-04-25T08:27:57;8.93;;;4.97;;
78903;SDS011;68291;49.602;8.722;2023-04-25T08:30:31;8.90;;;4.77;;
78903;SDS011;68291;49.602;8.722;2023-04-25T08:33:06;8.03;;;4.77;;
78903;SDS011;68291;49.602;8.722;2023-04-25T08:36:17;10.60;;;4.77;;
78903;SDS011;68291;49.602;8.722;2023-04-25T08:39:26;10.20;;;4.63;;
78903;SDS011;68291;49.602;8.722;2023-04-25T08:42:21;8.50;;;4.40;;
78903;SDS011;68291;49.602;8.722;2023-04-25T08:44:58;10.13;;;5.10;;
78903;SDS011;68291;49.602;8.722;2023-04-25T08:47:40;10.23;;;5.00;;
78903;SDS011;68291;49.602;8.722;2023-04-25T08:50:36;8.17;;;5.20;;
78903;SDS011;68291;49.602;8.722;2023-04-25T08:53:15;8.13;;;5.00;;
78903;SDS011;68291;49.602;8.722;2023-04-25T08:55:52;12.77;;;6.93;;
78903;SDS011;68291;49.602;8.722;2023-04-25T08:58:35;8.93;;;5.97;;
78903;SDS011;68291;49.602;8.722;2023-04-25T09:01:31;6.67;;;4.93;;
78903;SDS011;68291;49.602;8.722;2023-04-25T09:04:29;8.90;;;6.03;;
78903;SDS011;68291;49.602;8.722;2023-04-25T09:07:03;10.43;;;5.90;;
78903;SDS011;68291;49.602;8.722;2023-04-25T09:09:58;9.17;;;5.47;;
78903;SDS011;68291;49.602;8.722;2023-04-25T09:12:41;9.13;;;5.40;;
78903;SDS011;68291;49.602;8.722;2023-04-25T09:15:31;14.87;;;6.60;;
78903;SDS011;68291;49.602;8.722;2023-04-25T09:19:21;12.77;;;6.43;;
78903;SDS011;68291;49.602;8.722;2023-04-25T09:22:22;10.07;;;5.57;;
78903;SDS011;68291;49.602;8.722;2023-04-25T09:25:09;9.43;;;5.97;;
78903;SDS011;68291;49.602;8.722;2023-04-25T09:27:49;10.03;;;6.00;;
78903;SDS011;68291;49.602;8.722;2023-04-25T09:30:40;12.30;;;6.87;;
78903;SDS011;68291;49.602;8.722;2023-04-25T09:33:37;10.00;;;5.83;;
78903;SDS011;68291;49.602;8.722;2023-04-25T09:36:26;11.33;;;6.37;;
78903;SDS011;68291;49.602;8.722;2023-04-25T09:39:07;9.30;;;5.70;;
78903;SDS011;68291;49.602;8.722;2023-04-25T09:45:17;10.00;;;5.40;;
78903;SDS011;68291;49.602;8.722;2023-04-25T09:47:59;12.07;;;5.67;;
78903;SDS011;68291;49.602;8.722;2023-04-25T09:50:42;9.20;;;5.47;;
78903;SDS011;68291;49.602;8.722;2023-04-25T09:53:27;8.23;;;5.47;;
78903;SDS011;68291;49.602;8.722;2023-04-25T09:56:14;8.90;;;5.63;;
78903;SDS011;68291;49.602;8.722;2023-04-25T10:01:48;8.50;;;6.10;;
78903;SDS011;68291;49.602;8.722;2023-04-25T10:04:30;8.87;;;5.40;;
78903;SDS011;68291;49.602;8.722;2023-04-25T10:07:30;11.40;;;6.07;;
78903;SDS011;68291;49.602;8.722;2023-04-25T10:10:28;10.97;;;6.50;;
78903;SDS011;68291;49.602;8.722;2023-04-25T10:13:08;10.43;;;6.43;;
78903;SDS011;68291;49.602;8.722;2023-04-25T10:15:54;8.53;;;5.70;;
78903;SDS011;68291;49.602;8.722;2023-04-25T10:18:32;8.50;;;6.33;;
78903;SDS011;68291;49.602;8.722;2023-04-25T10:21:12;7.53;;;5.50;;
78903;SDS011;68291;49.602;8.722;2023-04-25T10:24:03;10.97;;;5.70;;
78903;SDS011;68291;49.602;8.722;2023-04-25T10:26:41;8.10;;;5.13;;
78903;SDS011;68291;49.602;8.722;2023-04-25T10:29:24;8.03;;;5.27;;
78903;SDS011;68291;49.602;8.722;2023-04-25T10:32:07;7.90;;;5.07;;
78903;SDS011;68291;49.602;8.722;2023-04-25T10:34:46;8.80;;;4.97;;
78903;SDS011;68291;49.602;8.722;2023-04-25T10:37:43;11.53;;;5.60;;
78903;SDS011;68291;49.602;8.722;2023-04-25T10:40:34;9.30;;;5.53;;
78903;SDS011;68291;49.602;8.722;2023-04-25T10:43:37;9.83;;;4.90;;
78903;SDS011;68291;49.602;8.722;2023-04-25T10:46:18;8.33;;;4.70;;
78903;SDS011;68291;49.602;8.722;2023-04-25T10:49:11;7.20;;;4.50;;
78903;SDS011;68291;49.602;8.722;2023-04-25T10:52:13;7.97;;;4.77;;
78903;SDS011;68291;49.602;8.722;2023-04-25T10:55:07;8.43;;;4.93;;
78903;SDS011;68291;49.602;8.722;2023-04-25T10:58:07;7.90;;;4.87;;
78903;SDS011;68291;49.602;8.722;2023-04-25T11:01:03;7.47;;;4.67;;
78903;SDS011;68291;49.602;8.722;2023-04-25T11:03:58;7.20;;;4.60;;
78903;SDS011;68291;49.602;8.722;2023-04-25T11:10:09;7.47;;;4.10;;
78903;SDS011;68291;49.602;8.722;2023-04-25T11:12:51;6.43;;;3.43;;
78903;SDS011;68291;49.602;8.722;2023-04-25T11:15:22;8.87;;;4.00;;
78903;SDS011;68291;49.602;8.722;2023-04-25T11:17:53;5.87;;;3.40;;
78903;SDS011;68291;49.602;8.722;2023-04-25T11:20:43;6.23;;;3.63;;
78903;SDS011;68291;49.602;8.722;2023-04-25T11:23:30;7.30;;;4.03;;
78903;SDS011;68291;49.602;8.722;2023-04-25T11:26:12;7.50;;;4.00;;
78903;SDS011;68291;49.602;8.722;2023-04-25T11:28:58;6.67;;;3.93;;
78903;SDS011;68291;49.602;8.722;2023-04-25T11:31:35;6.77;;;3.73;;
78903;SDS011;68291;49.602;8.722;2023-04-25T11:34:10;5.63;;;3.63;;
78903;SDS011;68291;49.602;8.722;2023-04-25T11:36:53;4.17;;;3.37;;
78903;SDS011;68291;49.602;8.722;2023-04-25T11:39:45;5.50;;;3.33;;
78903;SDS011;68291;49.602;8.722;2023-04-25T11:42:37;4.30;;;3.60;;
78903;SDS011;68291;49.602;8.722;2023-04-25T11:45:37;4.93;;;3.97;;
78903;SDS011;68291;49.602;8.722;2023-04-25T11:48:18;5.83;;;3.87;;
78903;SDS011;68291;49.602;8.722;2023-04-25T11:50:53;6.10;;;3.80;;
78903;SDS011;68291;49.602;8.722;2023-04-25T11:53:46;6.57;;;3.93;;
78903;SDS011;68291;49.602;8.722;2023-04-25T11:59:34;5.90;;;4.37;;
78903;SDS011;68291;49.602;8.722;2023-04-25T12:02:06;4.57;;;4.00;;
78903;SDS011;68291;49.602;8.722;2023-04-25T12:04:59;7.60;;;3.77;;
78903;SDS011;68291;49.602;8.722;2023-04-25T12:07:53;5.97;;;3.90;;
78903;SDS011;68291;49.602;8.722;2023-04-25T12:10:32;5.77;;;3.80;;
78903;SDS011;68291;49.602;8.722;2023-04-25T12:13:28;6.83;;;4.67;;
78903;SDS011;68291;49.602;8.722;2023-04-25T12:16:05;7.53;;;4.10;;
78903;SDS011;68291;49.602;8.722;2023-04-25T12:18:45;7.10;;;4.33;;
78903;SDS011;68291;49.602;8.722;2023-04-25T12:21:29;7.47;;;4.43;;
78903;SDS011;68291;49.602;8.722;2023-04-25T12:24:26;5.60;;;3.87;;
78903;SDS011;68291;49.602;8.722;2023-04-25T12:27:14;5.60;;;4.30;;
78903;SDS011;68291;49.602;8.722;2023-04-25T12:33:26;6.83;;;4.13;;
78903;SDS011;68291;49.602;8.722;2023-04-25T12:36:02;4.37;;;3.93;;
78903;SDS011;68291;49.602;8.722;2023-04-25T12:38:44;6.07;;;3.93;;
78903;SDS011;68291;49.602;8.722;2023-04-25T12:41:28;7.57;;;4.17;;
78903;SDS011;68291;49.602;8.722;2023-04-25T12:44:07;6.07;;;4.53;;
78903;SDS011;68291;49.602;8.722;2023-04-25T12:50:06;4.80;;;4.20;;
78903;SDS011;68291;49.602;8.722;2023-04-25T12:52:52;6.40;;;4.40;;
78903;SDS011;68291;49.602;8.722;2023-04-25T12:55:25;5.97;;;4.73;;
78903;SDS011;68291;49.602;8.722;2023-04-25T12:58:14;6.87;;;4.20;;
78903;SDS011;68291;49.602;8.722;2023-04-25T13:01:10;6.63;;;4.57;;
78903;SDS011;68291;49.602;8.722;2023-04-25T13:06:49;5.40;;;4.20;;
78903;SDS011;68291;49.602;8.722;2023-04-25T13:09:28;5.33;;;4.33;;
78903;SDS011;68291;49.602;8.722;2023-04-25T13:12:04;5.40;;;4.53;;
78903;SDS011;68291;49.602;8.722;2023-04-25T13:14:46;9.07;;;4.83;;
78903;SDS011;68291;49.602;8.722;2023-04-25T13:17:32;8.40;;;4.50;;
78903;SDS011;68291;49.602;8.722;2023-04-25T13:20:13;7.00;;;4.73;;
78903;SDS011;68291;49.602;8.722;2023-04-25T13:23:01;7.20;;;4.20;;
78903;SDS011;68291;49.602;8.722;2023-04-25T13:25:51;6.33;;;4.27;;
78903;SDS011;68291;49.602;8.722;2023-04-25T13:28:37;6.37;;;4.80;;
78903;SDS011;68291;49.602;8.722;2023-04-25T13:31:12;12.00;;;5.30;;
78903;SDS011;68291;49.602;8.722;2023-04-25T13:33:58;6.57;;;4.37;;
78903;SDS011;68291;49.602;8.722;2023-04-25T13:36:58;6.93;;;4.70;;
78903;SDS011;68291;49.602;8.722;2023-04-25T13:39:50;7.17;;;5.20;;
78903;SDS011;68291;49.602;8.722;2023-04-25T13:42:22;5.30;;;4.70;;
78903;SDS011;68291;49.602;8.722;2023-04-25T13:45:05;8.03;;;4.60;;
78903;SDS011;68291;49.602;8.722;2023-04-25T13:47:52;8.20;;;5.00;;
78903;SDS011;68291;49.602;8.722;2023-04-25T13:50:37;6.20;;;4.90;;
78903;SDS011;68291;49.602;8.722;2023-04-25T13:53:16;8.80;;;4.53;;
78903;SDS011;68291;49.602;8.722;2023-04-25T13:55:53;6.63;;;4.70;;
78903;SDS011;68291;49.602;8.722;2023-04-25T13:58:38;7.87;;;4.73;;
78903;SDS011;68291;49.602;8.722;2023-04-25T14:01:12;6.47;;;4.90;;
78903;SDS011;68291;49.602;8.722;2023-04-25T14:03:43;6.97;;;4.50;;
78903;SDS011;68291;49.602;8.722;2023-04-25T14:06:15;7.20;;;5.00;;
78903;SDS011;68291;49.602;8.722;2023-04-25T14:08:58;7.07;;;4.90;;
78903;SDS011;68291;49.602;8.722;2023-04-25T14:11:45;8.67;;;4.20;;
78903;SDS011;68291;49.602;8.722;2023-04-25T14:14:21;11.00;;;5.00;;
78903;SDS011;68291;49.602;8.722;2023-04-25T14:17:07;10.83;;;4.80;;
78903;SDS011;68291;49.602;8.722;2023-04-25T14:19:50;7.70;;;4.50;;
78903;SDS011;68291;49.602;8.722;2023-04-25T14:22:33;9.57;;;4.60;;
78903;SDS011;68291;49.602;8.722;2023-04-25T14:25:24;7.40;;;4.20;;
78903;SDS011;68291;49.602;8.722;2023-04-25T14:27:59;7.53;;;4.13;;
78903;SDS011;68291;49.602;8.722;2023-04-25T14:30:44;6.27;;;4.00;;
78903;SDS011;68291;49.602;8.722;2023-04-25T14:33:28;8.07;;;3.63;;
78903;SDS011;68291;49.602;8.722;2023-04-25T14:36:13;8.80;;;3.60;;
78903;SDS011;68291;49.602;8.722;2023-04-25T14:38:55;8.63;;;3.90;;
78903;SDS011;68291;49.602;8.722;2023-04-25T14:41:47;5.57;;;3.60;;
78903;SDS011;68291;49.602;8.722;2023-04-25T14:44:31;13.30;;;4.27;;
78903;SDS011;68291;49.602;8.722;2023-04-25T14:47:09;6.63;;;3.40;;
78903;SDS011;68291;49.602;8.722;2023-04-25T14:49:41;10.60;;;3.73;;
78903;SDS011;68291;49.602;8.722;2023-04-25T14:52:24;6.03;;;3.87;;
78903;SDS011;68291;49.602;8.722;2023-04-25T14:55:37;6.40;;;3.60;;
78903;SDS011;68291;49.602;8.722;2023-04-25T14:58:14;6.80;;;4.00;;
78903;SDS011;68291;49.602;8.722;2023-04-25T15:00:54;5.60;;;3.70;;
78903;SDS011;68291;49.602;8.722;2023-04-25T15:03:48;8.87;;;4.23;;
78903;SDS011;68291;49.602;8.722;2023-04-25T15:06:24;8.23;;;4.20;;
78903;SDS011;68291;49.602;8.722;2023-04-25T15:09:05;9.27;;;3.93;;
78903;SDS011;68291;49.602;8.722;2023-04-25T15:11:46;6.27;;;3.63;;
78903;SDS011;68291;49.602;8.722;2023-04-25T15:14:24;8.70;;;4.07;;
78903;SDS011;68291;49.602;8.722;2023-04-25T15:17:11;6.17;;;3.97;;
78903;SDS011;68291;49.602;8.722;2023-04-25T15:19:43;6.33;;;3.60;;
78903;SDS011;68291;49.602;8.722;2023-04-25T15:22:28;8.20;;;3.40;;
78903;SDS011;68291;49.602;8.722;2023-04-25T15:25:21;8.87;;;3.70;;
78903;SDS011;68291;49.602;8.722;2023-04-25T15:28:00;8.07;;;3.70;;
78903;SDS011;68291;49.602;8.722;2023-04-25T15:30:47;5.83;;;3.60;;
78903;SDS011;68291;49.602;8.722;2023-04-25T15:33:26;7.57;;;4.70;;
78903;SDS011;68291;49.602;8.722;2023-04-25T15:36:22;8.60;;;4.47;;
78903;SDS011;68291;49.602;8.722;2023-04-25T15:39:02;5.97;;;3.33;;
78903;SDS011;68291;49.602;8.722;2023-04-25T15:41:58;7.77;;;3.60;;
78903;SDS011;68291;49.602;8.722;2023-04-25T15:44:58;5.93;;;3.13;;
78903;SDS011;68291;49.602;8.722;2023-04-25T15:47:55;12.83;;;3.37;;
78903;SDS011;68291;49.602;8.722;2023-04-25T15:50:36;5.60;;;3.47;;
78903;SDS011;68291;49.602;8.722;2023-04-25T15:53:06;7.33;;;3.13;;
78903;SDS011;68291;49.602;8.722;2023-04-25T15:56:00;6.20;;;3.23;;
78903;SDS011;68291;49.602;8.722;2023-04-25T15:58:32;7.60;;;3.50;;
78903;SDS011;68291;49.602;8.722;2023-04-25T16:01:25;4.40;;;2.80;;
78903;SDS011;68291;49.602;8.722;2023-04-25T16:04:03;4.77;;;3.10;;
78903;SDS011;68291;49.602;8.722;2023-04-25T16:06:43;3.87;;;2.87;;
78903;SDS011;68291;49.602;8.722;2023-04-25T16:09:31;625.23;;;34.67;;
78903;SDS011;68291;49.602;8.722;2023-04-25T16:12:10;60.40;;;6.67;;
78903;SDS011;68291;49.602;8.722;2023-04-25T16:14:53;142.87;;;9.80;;
78903;SDS011;68291;49.602;8.722;2023-04-25T16:17:43;11.30;;;3.20;;
78903;SDS011;68291;49.602;8.722;2023-04-25T16:20:36;6.63;;;2.80;;
78903;SDS011;68291;49.602;8.722;2023-04-25T16:23:22;6.50;;;3.00;;
78903;SDS011;68291;49.602;8.722;2023-04-25T16:26:06;13.17;;;3.03;;
78903;SDS011;68291;49.602;8.722;2023-04-25T16:28:54;8.80;;;2.57;;
78903;SDS011;68291;49.602;8.722;2023-04-25T16:31:50;12.80;;;2.97;;
78903;SDS011;68291;49.602;8.722;2023-04-25T16:34:33;6.60;;;2.73;;
78903;SDS011;68291;49.602;8.722;2023-04-25T16:37:27;5.90;;;3.17;;
78903;SDS011;68291;49.602;8.722;2023-04-25T16:40:07;6.60;;;2.70;;
78903;SDS011;68291;49.602;8.722;2023-04-25T16:42:57;4.53;;;2.63;;
78903;SDS011;68291;49.602;8.722;2023-04-25T16:45:39;6.13;;;2.23;;
78903;SDS011;68291;49.602;8.722;2023-04-25T16:48:30;4.33;;;2.40;;
78903;SDS011;68291;49.602;8.722;2023-04-25T16:51:10;6.30;;;2.80;;
78903;SDS011;68291;49.602;8.722;2023-04-25T16:54:01;4.80;;;2.53;;
78903;SDS011;68291;49.602;8.722;2023-04-25T16:56:48;5.83;;;2.67;;
78903;SDS011;68291;49.602;8.722;2023-04-25T16:59:28;7.43;;;2.60;;
78903;SDS011;68291;49.602;8.722;2023-04-25T17:02:03;5.10;;;2.70;;
78903;SDS011;68291;49.602;8.722;2023-04-25T17:04:43;6.00;;;3.10;;
78903;SDS011;68291;49.602;8.722;2023-04-25T17:07:24;4.10;;;2.30;;
78903;SDS011;68291;49.602;8.722;2023-04-25T17:13:12;5.07;;;2.70;;
78903;SDS011;68291;49.602;8.722;2023-04-25T17:16:01;6.73;;;2.77;;
78903;SDS011;68291;49.602;8.722;2023-04-25T17:18:52;5.90;;;2.60;;
78903;SDS011;68291;49.602;8.722;2023-04-25T17:21:32;6.83;;;3.67;;
78903;SDS011;68291;49.602;8.722;2023-04-25T17:24:12;4.53;;;2.67;;